Ignasino, Russia
Current Conditions -  °F | °C
As of 11:00 PM on Thursday 27 Nov 2014 (Local Time) from UHBB Reporting Station
Clear Clear  
Wind Chill: -6°   Ceiling: Unl
Heat Index:   Visibility: 6mi
Dew Point: -9°   Wind: 4mph
Humidity: 56%   Direction: 240°WSW
Pressure: 30.27"   Gusts: NA
Location:  53.47°N, 122.4°E
Report Text: UHBB 271400Z 24002MPS CAVOK M16/M23 Q1025 NOSIG RMK QFE751/100136410250
Loading
Personal Weather Stations






























Interactive Weather Map New forecast layout! Learn more

10-Day Weather Forecast

Advertisements
Track Severe Weather on mobile